aviador You're here:

PAMO Decoded Metar

MOUNTAIN VILLAGE in AK, USA
Report Time2018-05-23 20:18:00
UTC Time2018-05-23 20:41:03
Flight Rules mvfr MVFR
Wind140° at 12 kt
W.Decomp.*RWY 20: 3.3 kt HW 11.5 kt LCW
W.Rank140° ranks 16
Current wind is below 140° avg. (12.2)
Visibility8047 m
Phenomena:Haze
Clouds:Broken 011 Hf
Expected CloudBase > 1,600 ft AGL from Temp-Dew spread
Ceiling1,100 ft
Temp08°C (ISA -6)
Dew Point04°C (76% RH)
AAT2.4°C
QNH1005 hPa
Density Alt-36 ft
Elevation338 ft
Report Wrong Elevation
Raw Report
PAMO 232018Z AUTO 14012KT 5SM HZ BKN011 08/04 A2967 RMK AO2=

Extra information for PAMO:More info

Metar Taf Metar & Taf Last 4 Metars F.Rules Stats Wind Profile Meteogram Temp Stats Airport Information Weather charts Add Link Nearby VenuesMetar ALERT Operation Metar Decoded Social comments

AIRNAV info for PAMO